Time;durP1;ratioP1;P1;durP2;ratioP2;P2;SDS_P1;SDS_P2;PMS_P1;PMS_P2;Temp;Humidity;BMP_temperature;BMP_pressure;BME280_temperature;BME280_humidity;BME280_pressure;Samples;Min_cycle;Max_cycle;Signal;HPM_P1;HPM_P2
2021/04/12 00:01:27;;;;;;;9.07;4.93;;;10.70;99.90;;;10.09;94.68;100925.75;5068984;28;20366;-52
2021/04/12 00:04:10;;;;;;;6.63;4.75;;;10.70;99.90;;;10.13;94.85;100926.31;5051726;28;20124;-50
2021/04/12 00:07:34;;;;;;;8.82;4.40;;;10.70;99.90;;;10.17;94.83;100915.50;5063779;28;20048;-50
2021/04/12 00:10:34;;;;;;;8.90;6.00;;;10.80;99.90;;;10.23;95.02;100912.44;5054097;28;20049;-48
2021/04/12 00:13:22;;;;;;;5.28;4.78;;;10.80;99.90;;;10.24;94.42;100915.84;5038882;28;20151;-49
2021/04/12 00:16:35;;;;;;;10.15;5.32;;;10.80;99.90;;;10.24;94.84;100908.03;5062897;28;20426;-53
2021/04/12 00:19:34;;;;;;;8.05;3.90;;;10.80;99.90;;;10.20;95.43;100901.44;5057327;28;20041;-51
2021/04/12 00:22:22;;;;;;;6.28;3.65;;;10.80;99.90;;;10.15;95.08;100901.81;5050528;28;20446;-50
2021/04/12 00:25:07;;;;;;;8.60;5.22;;;10.80;99.90;;;10.14;95.15;100900.16;5047739;28;20125;-53
2021/04/12 00:27:37;;;;;;;7.13;3.53;;;10.70;99.90;;;10.14;94.87;100901.94;5068108;28;20106;-51
2021/04/12 00:30:09;;;;;;;11.80;4.65;;;10.70;99.90;;;10.14;95.11;100889.75;5049665;28;20142;-52
2021/04/12 00:33:11;;;;;;;10.48;3.50;;;10.80;99.90;;;10.14;95.00;100894.13;5066503;28;20127;-51
2021/04/12 00:36:00;;;;;;;6.38;3.10;;;10.70;99.90;;;10.17;94.99;100891.25;4982995;28;20054;-50
2021/04/12 00:38:52;;;;;;;5.70;3.30;;;10.70;99.90;;;10.19;94.98;100892.81;4968940;28;20098;-51
2021/04/12 00:42:22;;;;;;;6.18;3.53;;;10.70;99.90;;;10.23;94.82;100889.00;4972289;28;20046;-50
2021/04/12 00:45:20;;;;;;;8.13;4.20;;;10.80;99.90;;;10.23;94.56;100886.38;4897268;29;20052;-48
2021/04/12 00:48:10;;;;;;;7.70;4.05;;;10.80;99.90;;;10.21;94.66;100885.69;4891537;29;20079;-50
2021/04/12 00:51:00;;;;;;;10.50;3.78;;;10.80;99.90;;;10.19;94.63;100886.75;4890590;29;20107;-50
2021/04/12 00:54:00;;;;;;;8.93;3.83;;;10.80;99.90;;;10.22;94.92;100874.31;4904297;29;20524;-48
2021/04/12 00:56:36;;;;;;;6.97;3.67;;;10.80;99.90;;;10.23;95.11;100867.34;4890620;29;21170;-52
2021/04/12 00:59:28;;;;;;;7.20;4.03;;;10.80;99.90;;;10.25;95.08;100866.25;4889720;29;20053;-48
2021/04/12 01:01:56;;;;;;;9.20;5.57;;;10.80;99.90;;;10.27;95.00;100864.34;4890310;29;20096;-52
2021/04/12 01:04:48;;;;;;;15.40;7.45;;;10.80;99.90;;;10.34;94.99;100858.59;4891850;29;20048;-52
2021/04/12 01:07:47;;;;;;;12.85;6.32;;;10.90;99.90;;;10.40;95.29;100858.06;4908802;29;20076;-51
2021/04/12 01:10:39;;;;;;;12.77;6.43;;;10.90;99.90;;;10.41;95.27;100857.06;4894312;28;20048;-50
2021/04/12 01:13:33;;;;;;;15.65;6.30;;;11.00;99.90;;;10.39;95.09;100859.03;4952227;28;20046;-55
2021/04/12 01:16:26;;;;;;;8.60;3.63;;;11.00;99.90;;;10.25;95.45;100850.63;5048411;28;20448;-54
2021/04/12 01:19:29;;;;;;;9.10;4.72;;;11.00;99.90;;;10.24;95.38;100856.78;5068556;28;20048;-51
2021/04/12 01:22:35;;;;;;;8.65;4.35;;;10.90;99.90;;;10.18;95.40;100848.66;5048597;28;20036;-51
2021/04/12 01:25:45;;;;;;;9.50;4.15;;;10.80;99.90;;;10.14;95.49;100857.66;5063720;28;20051;-48
2021/04/12 01:29:08;;;;;;;10.68;5.00;;;10.80;99.90;;;10.17;95.47;100858.22;5068204;28;20036;-48
2021/04/12 01:31:55;;;;;;;8.93;4.57;;;10.80;99.90;;;10.19;95.70;100856.34;5034895;28;20334;-54
2021/04/12 01:34:58;;;;;;;10.32;4.70;;;10.80;99.90;;;10.20;95.26;100841.56;5065540;28;20191;-49
2021/04/12 01:37:50;;;;;;;11.40;6.15;;;10.80;99.90;;;10.26;95.64;100851.44;5048418;28;20390;-50
2021/04/12 01:40:33;;;;;;;13.93;6.05;;;10.80;99.90;;;10.30;95.55;100840.63;5055089;28;20071;-55
2021/04/12 01:44:04;;;;;;;11.82;6.38;;;10.90;99.90;;;10.34;95.64;100837.75;5067307;28;20056;-47
2021/04/12 01:47:20;;;;;;;11.90;5.60;;;10.90;99.90;;;10.36;95.50;100831.47;5060426;28;20072;-46
2021/04/12 01:50:28;;;;;;;14.48;6.10;;;10.90;99.90;;;10.39;95.91;100825.16;5062483;28;20050;-52
2021/04/12 01:53:03;;;;;;;15.02;5.80;;;11.00;99.90;;;10.49;95.52;100824.19;5048373;28;20047;-48
2021/04/12 01:56:13;;;;;;;11.60;6.13;;;11.00;99.90;;;10.52;95.40;100815.28;5067038;28;20052;-50
2021/04/12 01:59:26;;;;;;;11.93;5.78;;;11.00;99.90;;;10.50;95.39;100810.22;5067961;28;20147;-52
2021/04/12 02:02:36;;;;;;;11.73;5.68;;;11.10;99.90;;;10.47;95.42;100810.47;5065288;28;20052;-49
2021/04/12 02:05:30;;;;;;;12.20;5.00;;;11.10;99.90;;;10.43;95.55;100809.09;5063414;28;20044;-51
2021/04/12 02:08:19;;;;;;;10.15;5.80;;;11.10;99.90;;;10.44;95.51;100809.91;5051592;28;20041;-50
2021/04/12 02:10:45;;;;;;;12.32;5.57;;;11.00;99.90;;;10.49;95.63;100805.13;5048801;28;20039;-53
2021/04/12 02:14:02;;;;;;;15.18;6.18;;;11.10;99.90;;;10.53;95.67;100807.34;5067551;28;20157;-53
2021/04/12 02:17:03;;;;;;;12.23;6.25;;;11.10;99.90;;;10.52;95.63;100803.09;5060771;28;20514;-46
2021/04/12 02:19:58;;;;;;;15.27;6.22;;;11.10;99.90;;;10.52;95.57;100804.88;5010188;28;20049;-50
2021/04/12 02:23:07;;;;;;;13.38;5.78;;;11.10;99.90;;;10.52;95.98;100802.25;5047509;28;20128;-49
2021/04/12 02:26:00;;;;;;;13.38;7.03;;;11.00;99.90;;;10.53;95.86;100812.53;5056259;28;20037;-47
2021/04/12 02:28:40;;;;;;;16.00;6.07;;;11.10;99.90;;;10.56;96.21;100801.03;5066640;28;20140;-48
2021/04/12 02:31:50;;;;;;;17.67;6.85;;;11.10;99.90;;;10.58;96.11;100794.72;5047756;28;20438;-48
2021/04/12 02:34:48;;;;;;;12.75;6.80;;;11.10;99.90;;;10.62;96.14;100790.88;5067196;28;20124;-52
2021/04/12 02:37:42;;;;;;;14.43;7.35;;;11.20;99.90;;;10.66;96.21;100788.00;5066815;28;20036;-53
2021/04/12 02:41:05;;;;;;;14.80;6.90;;;11.20;99.90;;;10.72;96.06;100790.06;5047856;28;20037;-51
2021/04/12 02:43:58;;;;;;;14.30;6.35;;;11.30;99.90;;;10.69;96.09;100787.75;5067572;28;20060;-51
2021/04/12 02:47:10;;;;;;;13.95;5.68;;;11.30;99.90;;;10.75;96.13;100780.19;5056010;28;20036;-51
2021/04/12 02:49:52;;;;;;;13.43;4.50;;;11.30;99.90;;;10.77;96.15;100778.28;5066164;28;20151;-52
2021/04/12 02:52:51;;;;;;;9.02;3.95;;;11.30;99.90;;;10.81;96.27;100782.25;5049401;28;20495;-50
2021/04/12 02:55:56;;;;;;;12.13;4.35;;;11.40;99.90;;;10.80;95.95;100782.38;5065238;28;20102;-52
2021/04/12 02:59:23;;;;;;;9.07;3.80;;;11.40;99.90;;;10.80;96.08;100778.00;5066651;28;20044;-52
2021/04/12 03:02:31;;;;;;;12.50;3.95;;;11.40;99.90;;;10.82;96.15;100780.47;5000688;28;20121;-54
2021/04/12 03:05:28;;;;;;;8.48;3.65;;;11.40;99.90;;;10.83;96.19;100787.34;5007828;28;20107;-53
2021/04/12 03:09:02;;;;;;;6.40;3.03;;;11.40;99.90;;;10.85;96.13;100791.44;5007866;28;20045;-55
2021/04/12 03:11:40;;;;;;;13.07;4.00;;;11.40;99.90;;;10.83;95.85;100779.50;4964356;28;20427;-52
2021/04/12 03:14:48;;;;;;;8.68;3.88;;;11.40;99.90;;;10.82;96.09;100783.06;5000923;28;20546;-49
2021/04/12 03:17:48;;;;;;;6.35;2.60;;;11.40;99.90;;;10.80;96.19;100783.22;5000342;28;20538;-55
2021/04/12 03:20:45;;;;;;;8.20;2.97;;;11.40;99.90;;;10.81;96.18;100790.06;5011149;28;20501;-51
2021/04/12 03:23:23;;;;;;;5.28;1.70;;;11.40;99.90;;;10.81;96.28;100784.84;5008504;28;20034;-45
2021/04/12 03:26:09;;;;;;;7.10;2.63;;;11.40;99.90;;;10.86;96.48;100781.84;5000411;28;20041;-52
2021/04/12 03:29:13;;;;;;;7.63;2.80;;;11.40;99.90;;;10.83;96.82;100788.16;5004396;28;20477;-51
2021/04/12 03:32:21;;;;;;;9.18;3.60;;;11.40;99.90;;;10.79;96.47;100786.78;4988937;28;20093;-52
2021/04/12 03:35:24;;;;;;;8.93;4.40;;;11.40;99.90;;;10.73;96.76;100792.53;5007752;28;20087;-50
2021/04/12 03:38:11;;;;;;;12.02;4.22;;;11.30;99.90;;;10.71;96.86;100804.88;5055163;28;20516;-51
2021/04/12 03:41:04;;;;;;;9.73;4.22;;;11.30;99.90;;;10.70;97.03;100803.25;5051626;28;20049;-53
2021/04/12 03:43:45;;;;;;;12.52;4.78;;;11.30;99.90;;;10.66;96.96;100812.28;4999165;28;20096;-54
2021/04/12 03:46:28;;;;;;;7.10;3.55;;;11.30;99.90;;;10.64;96.88;100804.59;5068796;28;20040;-51
2021/04/12 03:50:04;;;;;;;10.60;4.00;;;11.20;99.90;;;10.65;97.15;100795.00;5043779;28;20090;-53
2021/04/12 03:52:51;;;;;;;7.18;4.50;;;11.20;99.90;;;10.66;97.03;100785.41;4937102;28;20054;-45
2021/04/12 03:56:09;;;;;;;8.77;4.03;;;11.20;99.90;;;10.70;96.90;100782.38;4980993;28;20135;-56
2021/04/12 03:59:08;;;;;;;8.98;3.40;;;11.20;99.90;;;10.72;96.88;100784.84;4987719;28;20426;-54
2021/04/12 04:01:51;;;;;;;9.45;3.17;;;11.30;99.90;;;10.75;96.90;100784.59;4966321;28;20100;-55
2021/04/12 04:04:35;;;;;;;8.32;2.92;;;11.30;99.90;;;10.77;96.70;100785.28;4986574;28;20219;-50
2021/04/12 04:07:23;;;;;;;5.80;3.05;;;11.40;99.90;;;10.78;96.47;100779.09;4987297;28;20097;-53
2021/04/12 04:10:16;;;;;;;5.97;3.38;;;11.30;99.90;;;10.79;96.64;100781.56;4987602;28;20049;-50
2021/04/12 04:12:50;;;;;;;7.50;3.53;;;11.40;99.90;;;10.80;96.67;100783.22;4987665;28;20054;-51
2021/04/12 04:16:00;;;;;;;8.43;2.97;;;11.40;99.90;;;10.82;96.77;100780.47;4986185;28;20297;-52
2021/04/12 04:18:58;;;;;;;9.25;4.00;;;11.40;99.90;;;10.82;96.58;100783.91;4968632;28;20098;-48
2021/04/12 04:21:45;;;;;;;10.52;3.58;;;11.40;99.90;;;10.81;96.45;100784.84;4986454;28;20042;-48
2021/04/12 04:24:51;;;;;;;7.63;3.22;;;11.40;99.90;;;10.83;96.64;100782.94;4988054;28;20138;-49
2021/04/12 04:28:10;;;;;;;6.82;2.38;;;11.40;99.90;;;10.83;96.50;100775.13;5019526;28;20109;-54
2021/04/12 04:31:14;;;;;;;8.15;3.65;;;11.40;99.90;;;10.83;96.43;100779.50;5058126;28;20045;-57
2021/04/12 04:34:31;;;;;;;6.18;2.50;;;11.40;99.90;;;10.84;96.56;100784.59;5049621;28;20134;-54
2021/04/12 04:37:30;;;;;;;2.85;1.65;;;11.40;99.90;;;10.87;96.38;100783.50;4978977;28;20046;-57
2021/04/12 04:40:33;;;;;;;4.05;1.67;;;11.40;99.90;;;10.87;96.17;100786.88;4997466;28;20133;-50
2021/04/12 04:44:19;;;;;;;6.28;1.38;;;11.50;99.90;;;10.91;96.16;100779.63;5006924;28;20830;-55
2021/04/12 04:47:24;;;;;;;5.00;1.35;;;11.50;99.90;;;10.89;96.02;100787.56;4943172;28;20066;-57
2021/04/12 04:50:09;;;;;;;4.40;1.90;;;11.50;99.90;;;10.90;96.02;100773.56;4940285;28;20507;-52
2021/04/12 04:52:37;;;;;;;5.40;2.15;;;11.50;99.90;;;10.95;95.97;100781.81;4929679;29;20583;-53
2021/04/12 04:55:33;;;;;;;5.88;2.05;;;11.50;99.90;;;11.01;95.89;100779.59;4938306;28;20762;-56
2021/04/12 04:58:41;;;;;;;8.15;2.90;;;11.60;99.90;;;11.00;95.52;100777.97;4936126;28;20050;-51
2021/04/12 05:01:41;;;;;;;5.32;1.50;;;11.60;99.90;;;11.00;95.77;100777.97;4940869;28;20526;-52
2021/04/12 05:05:03;;;;;;;7.43;3.13;;;11.60;99.90;;;11.00;95.61;100777.97;4940725;28;20059;-49
2021/04/12 05:07:55;;;;;;;7.68;2.55;;;11.60;99.90;;;11.01;96.01;100777.81;4944748;28;20138;-49
2021/04/12 05:11:00;;;;;;;8.07;2.42;;;11.60;99.90;;;11.02;95.46;100776.03;4958227;28;20057;-46
2021/04/12 05:13:58;;;;;;;4.75;2.25;;;11.60;99.90;;;10.95;95.51;100787.03;4998323;28;20049;-49
2021/04/12 05:17:20;;;;;;;6.63;2.38;;;11.50;99.90;;;10.97;95.60;100785.09;5006297;28;20469;-50
2021/04/12 05:20:25;;;;;;;8.30;3.05;;;11.60;99.90;;;10.95;95.39;100784.41;5003215;28;20507;-49
2021/04/12 05:23:39;;;;;;;5.55;2.25;;;11.50;99.90;;;10.96;95.42;100780.03;5069236;28;20105;-50
2021/04/12 05:26:35;;;;;;;11.93;2.90;;;11.50;99.90;;;10.97;95.54;100784.28;5048835;28;20049;-45
2021/04/12 05:29:41;;;;;;;6.55;2.10;;;11.50;99.90;;;10.95;95.40;100781.81;5062071;28;20080;-52
2021/04/12 05:32:28;;;;;;;5.57;2.25;;;11.50;99.90;;;10.96;95.55;100783.44;5057149;28;20040;-50
2021/04/12 05:35:53;;;;;;;8.68;2.42;;;11.50;99.90;;;10.98;95.22;100786.75;5036439;28;20437;-49
2021/04/12 05:38:24;;;;;;;4.57;2.63;;;11.60;99.90;;;11.00;95.13;100786.59;5050091;28;20032;-48
2021/04/12 05:41:26;;;;;;;6.88;2.42;;;11.60;99.90;;;10.99;95.11;100784.97;5067305;28;20500;-46
2021/04/12 05:44:49;;;;;;;5.75;2.25;;;11.60;99.90;;;10.99;95.15;100792.78;5067158;28;20052;-46
2021/04/12 05:47:50;;;;;;;5.40;2.53;;;11.60;99.90;;;11.00;94.91;100789.22;4985446;28;20046;-48
2021/04/12 05:50:51;;;;;;;7.55;1.98;;;11.60;99.90;;;11.01;95.09;100792.66;4966927;28;20038;-52
2021/04/12 05:53:54;;;;;;;7.30;2.53;;;11.60;99.90;;;11.02;94.98;100791.69;4983753;28;20491;-50
2021/04/12 05:56:47;;;;;;;5.00;2.22;;;11.60;99.90;;;11.02;95.16;100794.28;4968271;28;20265;-50
2021/04/12 05:59:51;;;;;;;7.63;3.03;;;11.60;99.90;;;11.02;95.08;100792.50;4984759;28;20081;-53
2021/04/12 06:02:50;;;;;;;6.70;2.05;;;11.60;99.90;;;11.01;95.12;100788.25;4981568;28;20609;-48
2021/04/12 06:05:45;;;;;;;8.73;2.30;;;11.60;99.90;;;11.02;94.94;100791.69;4985585;28;20046;-49
2021/04/12 06:08:36;;;;;;;6.60;2.55;;;11.60;99.90;;;11.02;94.95;100797.72;4984377;28;20030;-53
2021/04/12 06:11:36;;;;;;;8.38;2.92;;;11.60;99.90;;;11.05;95.20;100796.63;4983668;28;20513;-53
2021/04/12 06:14:22;;;;;;;5.07;1.58;;;11.60;99.90;;;11.05;95.24;100801.84;4969215;28;20038;-51
2021/04/12 06:17:24;;;;;;;6.57;2.17;;;11.60;99.90;;;11.07;95.20;100799.91;4984926;28;20358;-54
2021/04/12 06:20:20;;;;;;;7.35;2.20;;;11.60;99.90;;;11.07;94.93;100798.13;5062852;28;20063;-49
2021/04/12 06:23:36;;;;;;;4.63;1.88;;;11.70;99.90;;;11.08;94.89;100796.34;4995512;28;20049;-48
2021/04/12 06:26:26;;;;;;;8.80;1.55;;;11.70;99.90;;;11.07;94.91;100805.13;5042321;28;20467;-50
2021/04/12 06:29:03;;;;;;;8.77;2.08;;;11.70;99.90;;;11.07;94.99;100797.31;5063640;28;20048;-49
2021/04/12 06:31:38;;;;;;;6.18;1.80;;;11.70;99.90;;;11.09;95.21;100796.19;5065846;28;20146;-55
2021/04/12 06:34:41;;;;;;;4.80;1.73;;;11.70;99.90;;;11.13;94.81;100788.94;5064716;28;20377;-51
2021/04/12 06:37:33;;;;;;;3.40;1.35;;;11.70;99.90;;;11.12;94.65;100792.50;5047089;28;20410;-50
2021/04/12 06:40:51;;;;;;;6.05;1.48;;;11.70;99.90;;;11.13;94.75;100799.34;5047834;28;20036;-51
2021/04/12 06:44:05;;;;;;;6.55;1.40;;;11.70;99.90;;;11.09;94.92;100792.78;5055537;28;20053;-50
2021/04/12 06:47:22;;;;;;;5.22;1.45;;;11.70;99.90;;;11.10;94.73;100794.41;5063868;28;20052;-55
2021/04/12 06:50:10;;;;;;;2.17;1.10;;;11.70;99.90;;;11.12;94.77;100784.66;5031194;28;20045;-53
2021/04/12 06:53:36;;;;;;;2.25;0.80;;;11.70;99.90;;;11.14;94.19;100786.19;5064664;28;20564;-52
2021/04/12 06:56:43;;;;;;;4.35;0.95;;;11.70;99.90;;;11.18;94.43;100782.31;5043114;28;20044;-52
2021/04/12 06:59:56;;;;;;;2.63;1.13;;;11.70;99.90;;;11.22;94.22;100786.31;5062581;28;20167;-49
2021/04/12 07:02:38;;;;;;;4.03;1.30;;;11.80;99.90;;;11.27;94.19;100786.72;5056219;28;20065;-52
2021/04/12 07:05:57;;;;;;;4.40;1.50;;;11.90;99.90;;;11.30;93.89;100777.78;5047571;28;20033;-49
2021/04/12 07:09:16;;;;;;;2.85;1.35;;;11.90;99.90;;;11.48;93.65;100770.00;5059822;28;20187;-49
2021/04/12 07:12:13;;;;;;;3.97;0.85;;;12.00;99.90;;;11.47;92.79;100779.63;5049185;28;20230;-52
2021/04/12 07:15:05;;;;;;;;;;;12.00;99.90;;;11.43;92.93;100777.44;5061430;28;21071;-49
2021/04/12 07:17:51;;;;;;;3.47;0.90;;;12.00;99.90;;;11.36;93.09;100782.41;5061861;28;20325;-48
2021/04/12 07:21:00;;;;;;;4.40;0.90;;;12.00;99.90;;;11.36;93.39;100778.97;5047086;28;20044;-49
2021/04/12 07:24:16;;;;;;;3.50;1.02;;;12.00;99.90;;;11.38;93.13;100780.47;5048264;28;20048;-48
2021/04/12 07:26:56;;;;;;;8.07;1.80;;;12.00;99.90;;;11.40;92.87;100775.94;5064859;28;20045;-47
2021/04/12 07:30:17;;;;;;;1.95;1.13;;;12.00;99.90;;;11.40;92.88;100778.53;5066735;28;20063;-50
2021/04/12 07:33:23;;;;;;;7.60;1.48;;;12.00;99.90;;;11.39;92.90;100776.06;5028853;28;20151;-48
2021/04/12 07:36:11;;;;;;;3.70;1.00;;;12.00;99.90;;;11.35;92.59;100778.16;5047390;28;20051;-48
2021/04/12 07:38:56;;;;;;;4.15;1.10;;;12.00;99.90;;;11.32;93.00;100785.47;5047624;28;20417;-48
2021/04/12 07:42:16;;;;;;;3.38;1.33;;;12.00;99.90;;;11.30;92.86;100770.78;5053433;28;20511;-51
2021/04/12 07:45:11;;;;;;;8.07;1.27;;;11.90;99.90;;;11.28;92.82;100771.88;5054299;28;20040;-47
2021/04/12 07:48:16;;;;;;;3.05;1.00;;;11.90;99.90;;;11.28;92.61;100772.69;5064195;28;20048;-48
2021/04/12 07:51:47;;;;;;;5.63;0.65;;;11.90;99.90;;;11.30;92.46;100772.56;5034227;28;20033;-55
2021/04/12 07:54:34;;;;;;;2.55;0.90;;;11.90;99.90;;;11.32;92.58;100768.03;5064632;28;20044;-47
2021/04/12 07:58:04;;;;;;;4.38;0.73;;;11.90;99.90;;;11.36;92.17;100782.41;5070706;28;20052;-50
2021/04/12 08:00:56;;;;;;;2.42;0.63;;;11.90;99.90;;;11.38;91.63;100775.25;5007231;28;20504;-49
2021/04/12 08:04:19;;;;;;;3.55;0.80;;;12.00;99.90;;;11.46;92.16;100774.56;5054470;28;20432;-47
2021/04/12 08:07:18;;;;;;;3.67;0.60;;;12.00;99.90;;;11.43;92.23;100773.03;4987364;28;20046;-49
2021/04/12 08:09:56;;;;;;;1.73;0.68;;;12.00;99.90;;;11.50;92.32;100775.91;4989330;28;20053;-50
2021/04/12 08:13:12;;;;;;;2.58;0.70;;;12.10;99.90;;;11.47;91.73;100771.78;5007440;28;20138;-52
2021/04/12 08:16:08;;;;;;;2.25;0.85;;;12.10;99.90;;;11.55;92.12;100769.31;4999793;28;20097;-53
2021/04/12 08:18:33;;;;;;;3.05;1.08;;;12.10;99.90;;;11.57;92.22;100772.59;4989092;28;20054;-47
2021/04/12 08:21:46;;;;;;;2.30;0.47;;;12.10;99.90;;;11.52;91.93;100764.38;4990020;28;20080;-53
2021/04/12 08:24:43;;;;;;;3.38;0.50;;;12.10;99.90;;;11.52;91.42;100759.16;4990510;28;20050;-51
2021/04/12 08:27:49;;;;;;;3.95;0.60;;;12.10;99.90;;;11.53;91.28;100763.41;4979721;28;20033;-50
2021/04/12 08:30:58;;;;;;;1.65;0.75;;;12.10;99.90;;;11.50;91.80;100768.09;4999849;28;20060;-49
2021/04/12 08:34:25;;;;;;;0.90;0.40;;;12.10;99.90;;;11.52;92.02;100769.59;4987835;28;20546;-49
2021/04/12 08:37:00;;;;;;;1.83;0.50;;;12.10;99.90;;;11.53;91.94;100755.56;4987391;28;20053;-47
2021/04/12 08:40:09;;;;;;;2.78;0.40;;;12.10;99.90;;;11.61;91.87;100760.06;4987045;28;20103;-50
2021/04/12 08:42:56;;;;;;;1.77;0.57;;;12.20;99.90;;;11.67;91.46;100767.34;5036765;28;20043;-49
2021/04/12 08:46:02;;;;;;;3.33;0.35;;;12.30;99.90;;;11.78;91.42;100763.75;5049567;28;20220;-51
2021/04/12 08:48:56;;;;;;;1.70;0.52;;;12.30;99.90;;;11.83;90.68;100764.09;5065624;28;20094;-51
2021/04/12 08:51:56;;;;;;;1.17;0.32;;;12.40;99.90;;;11.76;90.74;100770.88;5066697;28;20033;-47
2021/04/12 08:54:38;;;;;;;1.20;0.30;;;12.30;99.90;;;11.78;90.56;100771.59;5047685;28;20048;-50
2021/04/12 08:57:32;;;;;;;2.75;0.30;;;12.40;99.90;;;11.82;90.52;100759.84;5069485;28;20032;-48
2021/04/12 08:59:58;;;;;;;0.98;0.40;;;12.40;99.90;;;11.84;90.60;100756.13;5050790;28;20128;-47
2021/04/12 09:03:03;;;;;;;1.30;0.20;;;12.40;99.90;;;11.80;90.10;100764.44;5065033;28;20131;-50
2021/04/12 09:06:13;;;;;;;1.02;0.30;;;12.40;99.90;;;11.76;90.37;100757.81;5065036;28;20044;-50
2021/04/12 09:09:22;;;;;;;0.63;0.20;;;12.40;99.90;;;11.88;89.55;100767.09;5057730;28;20407;-51
2021/04/12 09:12:10;;;;;;;0.80;0.30;;;12.40;99.90;;;11.89;89.81;100760.91;5047332;28;20036;-48
2021/04/12 09:15:25;;;;;;;1.13;0.25;;;12.50;99.90;;;11.94;90.08;100764.75;5065701;28;20048;-48
2021/04/12 09:18:12;;;;;;;1.70;0.45;;;12.50;99.90;;;11.93;90.37;100757.06;5065485;28;20041;-47
2021/04/12 09:21:00;;;;;;;3.97;1.50;;;12.50;99.90;;;11.98;90.40;100764.44;5068758;28;20072;-47
2021/04/12 09:23:44;;;;;;;4.55;1.75;;;12.60;99.90;;;11.96;90.40;100769.81;5067590;28;20036;-52
2021/04/12 09:26:57;;;;;;;2.28;0.40;;;12.60;99.90;;;11.92;90.38;100756.22;5066090;28;20388;-50
2021/04/12 09:30:19;;;;;;;0.90;0.28;;;12.50;99.90;;;11.92;89.17;100763.25;4986253;28;20166;-52
2021/04/12 09:33:21;;;;;;;0.70;0.30;;;12.60;99.90;;;11.89;89.89;100760.91;4986010;28;20512;-49
2021/04/12 09:36:18;;;;;;;0.95;0.30;;;12.50;99.90;;;11.86;89.72;100764.66;4985168;28;20045;-46
2021/04/12 09:39:17;;;;;;;0.52;0.25;;;12.50;99.90;;;11.83;89.54;100761.50;4985341;28;20129;-52
2021/04/12 09:42:29;;;;;;;1.70;0.20;;;12.50;99.90;;;11.85;88.84;100749.13;4979665;28;20057;-51
2021/04/12 09:45:17;;;;;;;1.45;0.20;;;12.40;99.90;;;11.85;88.65;100757.78;4965611;28;20085;-50
2021/04/12 09:48:18;;;;;;;2.67;0.20;;;12.40;99.90;;;11.86;87.75;100748.16;4965150;28;20054;-47
2021/04/12 09:51:30;;;;;;;1.17;0.20;;;12.50;99.90;;;11.82;88.12;100749.41;4958541;28;20062;-48
2021/04/12 09:54:51;;;;;;;1.77;0.20;;;12.50;99.90;;;11.77;87.84;100744.66;4966139;28;20519;-49
2021/04/12 09:57:55;;;;;;;0.30;0.20;;;12.40;99.90;;;11.72;87.90;100741.63;4963926;28;20089;-49
2021/04/12 10:01:11;;;;;;;1.67;0.20;;;12.40;99.90;;;11.68;88.01;100747.28;4935481;29;20079;-51
2021/04/12 10:03:51;;;;;;;1.42;0.30;;;12.30;99.90;;;11.62;88.66;100739.06;4961022;28;20038;-51
2021/04/12 10:06:36;;;;;;;1.10;0.30;;;12.40;99.90;;;11.62;88.32;100728.63;4999745;28;20050;-48
2021/04/12 10:09:41;;;;;;;1.92;0.40;;;12.20;99.90;;;11.60;88.73;100735.78;4998780;28;20041;-47
2021/04/12 10:12:36;;;;;;;0.75;0.38;;;12.20;99.90;;;11.67;88.57;100720.34;5002025;28;20405;-53
2021/04/12 10:15:35;;;;;;;1.50;0.32;;;12.30;99.90;;;11.80;87.67;100733.09;4995335;28;20100;-49
2021/04/12 10:18:22;;;;;;;0.93;0.30;;;12.30;99.90;;;11.87;87.93;100727.13;5003212;28;20367;-48
2021/04/12 10:21:27;;;;;;;1.77;0.35;;;12.40;99.90;;;11.91;87.47;100730.28;5004713;28;20055;-50
2021/04/12 10:24:29;;;;;;;1.23;0.35;;;12.50;99.90;;;11.97;87.37;100729.69;5004073;28;20520;-47
2021/04/12 10:27:05;;;;;;;1.30;0.63;;;12.60;99.90;;;12.01;87.40;100728.41;4994286;28;20061;-51
2021/04/12 10:29:42;;;;;;;1.65;0.40;;;12.60;99.90;;;12.01;87.50;100722.38;4999597;28;20508;-50
2021/04/12 10:32:20;;;;;;;1.20;0.63;;;12.60;99.90;;;12.09;87.59;100731.13;5001063;28;20125;-52
2021/04/12 10:34:56;;;;;;;1.15;0.43;;;12.70;99.90;;;12.04;87.17;100722.91;5016746;28;20060;-51
2021/04/12 10:38:00;;;;;;;1.95;0.50;;;12.70;99.90;;;11.99;87.23;100719.09;5015845;28;20029;-49
2021/04/12 10:40:43;;;;;;;2.40;0.40;;;12.60;99.90;;;11.99;87.06;100719.91;5023432;28;20045;-49
2021/04/12 10:43:17;;;;;;;1.98;0.60;;;12.60;99.90;;;12.05;87.09;100719.31;5045836;28;20044;-48
2021/04/12 10:46:03;;;;;;;1.83;0.40;;;12.60;99.90;;;12.04;87.28;100719.47;5063734;28;20044;-46
2021/04/12 10:48:42;;;;;;;1.40;0.55;;;12.60;99.90;;;11.96;87.34;100718.41;5066829;28;20079;-48
2021/04/12 10:51:58;;;;;;;2.38;0.70;;;12.60;99.90;;;12.01;87.41;100714.53;5065874;28;20591;-47
2021/04/12 10:54:56;;;;;;;1.92;0.68;;;12.60;99.90;;;12.09;87.34;100720.69;5064145;28;20649;-50
2021/04/12 10:58:23;;;;;;;1.67;0.45;;;12.70;99.90;;;12.12;87.16;100709.13;5046931;28;20056;-46
2021/04/12 11:01:02;;;;;;;1.60;0.45;;;12.70;99.90;;;12.16;87.68;100707.84;5040385;28;20056;-50
2021/04/12 11:03:56;;;;;;;2.55;0.73;;;12.80;99.90;;;12.08;87.01;100705.97;5067736;28;20122;-50
2021/04/12 11:06:43;;;;;;;5.80;0.80;;;12.80;99.90;;;12.09;87.17;100705.00;5047577;28;20396;-46
2021/04/12 11:09:35;;;;;;;2.28;1.02;;;12.80;99.90;;;12.00;87.39;100705.88;5059825;28;20044;-52
2021/04/12 11:12:20;;;;;;;2.58;0.65;;;12.70;99.90;;;12.03;87.48;100710.00;5066737;28;20037;-49
2021/04/12 11:15:04;;;;;;;2.05;0.50;;;12.70;99.90;;;11.99;87.58;100711.25;5044686;28;20041;-50
2021/04/12 11:17:44;;;;;;;2.38;1.30;;;12.70;99.90;;;11.91;88.13;100706.78;5012795;28;20431;-50
2021/04/12 11:20:35;;;;;;;3.70;0.40;;;12.60;99.90;;;11.93;87.58;100703.03;5054390;28;20040;-48
2021/04/12 11:23:09;;;;;;;2.17;0.57;;;12.60;99.90;;;11.89;87.96;100703.47;5048501;28;20129;-46
2021/04/12 11:26:11;;;;;;;3.03;0.70;;;12.50;99.90;;;11.91;88.09;100704.97;5066498;28;20480;-47
2021/04/12 11:29:21;;;;;;;0.80;0.40;;;12.50;99.90;;;11.92;87.94;100704.00;5052120;28;20377;-47
2021/04/12 11:32:41;;;;;;;2.85;0.63;;;12.60;99.90;;;11.94;87.91;100706.47;5036264;28;20044;-47
2021/04/12 11:35:15;;;;;;;1.02;0.50;;;12.60;99.90;;;11.96;87.93;100707.16;5059954;28;20053;-49
2021/04/12 11:37:50;;;;;;;1.52;0.73;;;12.60;99.90;;;11.96;87.97;100709.75;5066130;28;20166;-51
2021/04/12 11:40:27;;;;;;;1.65;0.50;;;12.60;99.90;;;11.94;88.01;100701.25;5070664;28;20049;-53
2021/04/12 11:42:58;;;;;;;1.10;0.40;;;12.60;99.90;;;11.91;87.99;100697.16;5044638;28;20056;-52
2021/04/12 11:45:53;;;;;;;3.15;1.38;;;12.50;99.90;;;11.94;87.83;100701.25;5069123;28;20090;-47
2021/04/12 11:48:52;;;;;;;2.55;0.32;;;12.50;99.90;;;11.93;87.66;100692.59;5045700;28;20095;-46
2021/04/12 11:51:53;;;;;;;2.13;0.40;;;12.60;99.90;;;11.97;88.44;100698.34;5015474;28;20400;-50
2021/04/12 11:54:41;;;;;;;2.45;0.57;;;12.60;99.90;;;12.00;88.48;100695.44;5065544;28;20053;-50
2021/04/12 11:57:36;;;;;;;3.03;0.40;;;12.60;99.90;;;12.03;88.61;100700.38;5051300;28;20040;-46
2021/04/12 12:00:06;;;;;;;2.10;0.38;;;12.70;99.90;;;11.99;88.62;100700.81;5064957;28;20136;-48
2021/04/12 12:03:21;;;;;;;2.08;0.40;;;12.60;99.90;;;11.97;88.79;100698.34;5043006;28;20033;-48
2021/04/12 12:06:28;;;;;;;3.97;0.60;;;12.60;99.90;;;11.94;89.40;100698.66;4967753;28;20404;-46
2021/04/12 12:09:17;;;;;;;;;;;12.50;99.90;;;11.93;89.44;100689.16;5056218;28;20025;-49
2021/04/12 12:12:00;;;;;;;1.42;0.90;;;12.50;99.90;;;12.02;89.16;100698.72;5050073;28;19967;-47
2021/04/12 12:15:03;;;;;;;0.80;0.43;;;12.60;99.90;;;12.11;88.79;100690.00;5062487;28;20102;-53
2021/04/12 12:17:59;;;;;;;1.88;1.00;;;12.70;99.90;;;12.33;88.27;100690.50;5064194;28;20158;-47
2021/04/12 12:20:44;;;;;;;1.67;0.77;;;12.80;99.90;;;12.36;88.25;100696.25;5024051;28;20045;-47